»·PEaware :: N282DA KSBA-KSFO

N282DA :: KSBA-KSFO

FLIGHT INFORMATION

Flight Status: Arrived
Operator: Privately registered:
United States
More flights under this callsign
Pilot: Andrew C. (33665)
Aircraft: SOCATA TBM-900
(TBM9)
More flights by this aircraft type
Origin: KSBA Santa Barbara Mun
United States
Destination: KSFO San Francisco Intl
United States
More flights between these airports :: More routes between these airports
Route: GVO MQO BSR OSI
File this flight plan on PilotEdge
Remarks: I DONT THINK THE SERFR4 IS NORMALY GIVEN TO TURBO PROBS BUT I WOULD LIKE TO PRACTICE THE STAR. THANKS. IF IT DOESNT WORK NO PROBLEM...
Altitude:
(Current/Filed)
26,000ft
Speed:
(Current/Filed)
325kts
Departed: 22-Feb-21 09:35 PM
Arrived: 22-Feb-21 10:33 PM
Distance/Time
Traveled:
228nm/0:57
Distance/Time
To Go:
Arrived

Flight Plot

Page will automatically refresh every two minutes.


Map Options




Map Legend


Flown Route
Filed Route
Departure Airport
Arrival Airport
Navaid (VOR, NDB)
Fix

Horizontal Profiles

Position Reports

Time Latitude Longitude Heading Altitude Ground
Speed
22-Feb-21 21:17 34.423100 -119.836114 344 15ft 0kts
22-Feb-21 21:18 34.423100 -119.836114 344 15ft 0kts
22-Feb-21 21:19 34.423100 -119.836114 344 15ft 0kts
22-Feb-21 21:20 34.423100 -119.836114 344 15ft 0kts
22-Feb-21 21:21 34.423100 -119.836114 344 15ft 0kts
22-Feb-21 21:22 34.423100 -119.836114 344 15ft 0kts
22-Feb-21 21:23 34.423100 -119.836114 344 15ft 0kts
22-Feb-21 21:24 34.423100 -119.836114 344 15ft 0kts
22-Feb-21 21:25 34.423100 -119.836114 344 15ft 0kts
22-Feb-21 21:26 34.423100 -119.836114 344 15ft 0kts
22-Feb-21 21:27 34.423100 -119.836114 344 15ft 0kts
22-Feb-21 21:28 34.423100 -119.836114 344 15ft 0kts
22-Feb-21 21:29 34.423100 -119.836114 344 15ft 0kts
22-Feb-21 21:30 34.423100 -119.836114 344 15ft 0kts
22-Feb-21 21:31 34.425735 -119.837990 345 18ft 29kts
22-Feb-21 21:32 34.427058 -119.834840 39 16ft 12kts
22-Feb-21 21:33 34.427093 -119.834810 29 16ft 0kts
22-Feb-21 21:34 34.427785 -119.840789 268 15ft 96kts
22-Feb-21 21:35 34.423840 -119.885930 263 2038ft 151kts
22-Feb-21 21:36 34.418097 -119.951126 263 2829ft 234kts
22-Feb-21 21:37 34.411095 -120.029521 263 4212ft 225kts
22-Feb-21 21:38 34.427043 -120.096691 348 5529ft 234kts
22-Feb-21 21:39 34.486354 -120.122875 331 7621ft 221kts
22-Feb-21 21:40 34.537311 -120.161171 325 10124ft 211kts
22-Feb-21 21:41 34.585505 -120.200979 325 12559ft 213kts
22-Feb-21 21:43 34.635398 -120.242385 324 14769ft 221kts
22-Feb-21 21:44 34.687033 -120.285314 324 16895ft 229kts
22-Feb-21 21:45 34.740573 -120.329889 324 18897ft 237kts
22-Feb-21 21:46 34.795977 -120.376096 324 20826ft 245kts
22-Feb-21 21:47 34.853053 -120.423776 324 22681ft 253kts
22-Feb-21 21:48 34.911890 -120.473012 324 24390ft 260kts
22-Feb-21 21:49 34.973009 -120.524254 324 25714ft 280kts
22-Feb-21 21:50 35.041654 -120.581911 324 25846ft 315kts
22-Feb-21 21:51 35.115530 -120.644097 324 25844ft 326kts
22-Feb-21 21:52 35.190536 -120.707386 324 25844ft 329kts
22-Feb-21 21:53 35.265432 -120.771897 320 25841ft 330kts
22-Feb-21 21:54 35.338384 -120.840254 321 25841ft 330kts
22-Feb-21 21:55 35.411300 -120.908776 321 25841ft 330kts
22-Feb-21 21:56 35.484438 -120.977643 321 25843ft 332kts
22-Feb-21 21:57 35.557580 -121.046673 321 25843ft 332kts
22-Feb-21 21:58 35.630826 -121.115976 321 25845ft 332kts
22-Feb-21 21:59 35.703930 -121.185302 321 25842ft 332kts
22-Feb-21 22:00 35.777233 -121.254985 321 25842ft 332kts
22-Feb-21 22:01 35.850111 -121.324425 321 25845ft 332kts
22-Feb-21 22:02 35.923390 -121.394422 321 25846ft 332kts
22-Feb-21 22:03 35.996437 -121.464358 321 25844ft 332kts
22-Feb-21 22:04 36.069445 -121.534433 321 23938ft 333kts
22-Feb-21 22:05 36.141800 -121.604048 321 21947ft 325kts
22-Feb-21 22:06 36.217781 -121.661398 334 20124ft 311kts
22-Feb-21 22:06 36.281253 -121.694004 336 19870ft 282kts
22-Feb-21 22:08 36.367251 -121.738832 336 18225ft 299kts
22-Feb-21 22:09 36.443828 -121.778805 336 16228ft 296kts
22-Feb-21 22:09 36.505850 -121.811241 336 14561ft 276kts
22-Feb-21 22:11 36.584547 -121.852487 336 12209ft 254kts
22-Feb-21 22:11 36.637632 -121.880358 336 10543ft 245kts
22-Feb-21 22:12 36.696015 -121.911063 336 9761ft 205kts
22-Feb-21 22:13 36.751783 -121.940435 336 9741ft 229kts
22-Feb-21 22:15 36.821339 -121.977139 336 9735ft 234kts
22-Feb-21 22:16 36.880937 -122.008646 336 9733ft 234kts
22-Feb-21 22:16 36.931027 -122.035168 336 9732ft 235kts
22-Feb-21 22:17 36.991208 -122.067081 336 9735ft 235kts
22-Feb-21 22:18 37.051565 -122.097770 351 9727ft 235kts
22-Feb-21 22:19 37.120516 -122.098924 354 7880ft 241kts
22-Feb-21 22:20 37.185794 -122.104127 356 6542ft 237kts
22-Feb-21 22:21 37.250637 -122.109104 355 5803ft 225kts
22-Feb-21 22:22 37.310917 -122.113782 355 5726ft 210kts
22-Feb-21 22:23 37.365095 -122.129224 311 5728ft 195kts
22-Feb-21 22:24 37.402310 -122.167238 341 5727ft 173kts
22-Feb-21 22:25 37.448099 -122.172816 7 5028ft 175kts
22-Feb-21 22:26 37.499585 -122.163684 352 3062ft 193kts
22-Feb-21 22:27 37.541149 -122.189611 307 2275ft 135kts
22-Feb-21 22:28 37.558975 -122.227627 295 2232ft 121kts
22-Feb-21 22:29 37.577466 -122.271303 296 1590ft 155kts
22-Feb-21 22:30 37.598000 -122.320207 297 723ft 158kts
22-Feb-21 22:31 37.615251 -122.361187 294 27ft 85kts
22-Feb-21 22:32 37.620159 -122.372932 297 11ft 28kts
22-Feb-21 22:33 37.624083 -122.381312 339 13ft 4kts
22-Feb-21 22:34 37.625215 -122.381394 342 12ft 10kts
22-Feb-21 22:35 37.627491 -122.384655 23 9ft 14kts

Navigation Log

Ident Type
Flight plan parsing failed, navigation log unavailable